createdAt,value
2018-02-14T00:00:37.613Z,10.63
2018-02-14T00:03:05.269Z,10.40
2018-02-14T00:05:32.906Z,12.30
2018-02-14T00:08:00.576Z,12.77
2018-02-14T00:10:28.236Z,11.80
2018-02-14T00:12:55.951Z,13.77
2018-02-14T00:15:24.385Z,10.97
2018-02-14T00:17:52.045Z,12.17
2018-02-14T00:20:19.685Z,11.10
2018-02-14T00:22:48.108Z,9.87
2018-02-14T00:25:15.752Z,11.07
2018-02-14T00:27:43.432Z,11.30
2018-02-14T00:30:11.104Z,12.27
2018-02-14T00:32:38.760Z,11.87
2018-02-14T00:35:06.394Z,11.20
2018-02-14T00:37:34.064Z,10.77
2018-02-14T00:40:01.734Z,11.73
2018-02-14T00:42:29.374Z,11.67
2018-02-14T00:44:57.059Z,11.37
2018-02-14T00:47:24.685Z,10.30
2018-02-14T00:49:52.368Z,12.30
2018-02-14T00:52:19.993Z,10.70
2018-02-14T00:54:48.408Z,11.97
2018-02-14T00:57:16.067Z,12.90
2018-02-14T00:59:43.713Z,10.50
2018-02-14T01:02:11.356Z,13.60
2018-02-14T01:04:39.777Z,11.80
2018-02-14T01:07:07.414Z,10.93
2018-02-14T01:09:35.085Z,11.50
2018-02-14T01:12:02.736Z,12.40
2018-02-14T01:14:30.348Z,12.67
2018-02-14T01:16:58.033Z,11.43
2018-02-14T01:19:26.417Z,11.87
2018-02-14T01:21:54.828Z,12.83
2018-02-14T01:24:22.466Z,12.73
2018-02-14T01:26:50.109Z,11.67
2018-02-14T01:29:18.517Z,12.70
2018-02-14T01:31:46.183Z,12.77
2018-02-14T01:34:13.805Z,12.63
2018-02-14T01:36:41.450Z,13.30
2018-02-14T01:39:09.063Z,15.40
2018-02-14T01:41:36.691Z,12.73
2018-02-14T01:44:04.271Z,12.60
2018-02-14T01:46:32.634Z,13.20
2018-02-14T01:49:00.989Z,15.20
2018-02-14T01:51:28.619Z,14.40
2018-02-14T01:53:56.226Z,13.60
2018-02-14T01:56:24.582Z,14.80
2018-02-14T01:58:52.195Z,14.03
2018-02-14T02:01:19.798Z,15.03
2018-02-14T02:03:47.444Z,16.70
2018-02-14T02:06:15.023Z,16.37
2018-02-14T02:08:42.662Z,17.73
2018-02-14T02:11:10.274Z,18.07
2018-02-14T02:13:38.651Z,18.30
2018-02-14T02:16:07.009Z,18.30
2018-02-14T02:18:34.627Z,16.67
2018-02-14T02:21:02.255Z,14.10
2018-02-14T02:23:30.627Z,13.70
2018-02-14T02:25:58.990Z,13.37
2018-02-14T02:28:26.614Z,13.23
2018-02-14T02:30:54.201Z,14.20
2018-02-14T02:33:22.800Z,11.30
2018-02-14T02:35:50.386Z,13.67
2018-02-14T02:38:17.972Z,13.93
2018-02-14T02:40:45.580Z,13.73
2018-02-14T02:43:13.935Z,11.90
2018-02-14T02:45:41.550Z,12.50
2018-02-14T02:48:09.122Z,12.83
2018-02-14T02:50:36.744Z,14.60
2018-02-14T02:53:05.099Z,12.93
2018-02-14T02:55:32.728Z,15.20
2018-02-14T02:58:00.315Z,14.80
2018-02-14T03:00:27.927Z,14.20
2018-02-14T03:02:55.515Z,14.20
2018-02-14T03:05:23.118Z,13.80
2018-02-14T03:07:51.481Z,13.13
2018-02-14T03:10:19.108Z,14.23
2018-02-14T03:12:46.686Z,14.73
2018-02-14T03:15:14.303Z,15.20
2018-02-14T03:17:41.895Z,14.00
2018-02-14T03:20:09.467Z,12.93
2018-02-14T03:22:37.075Z,15.23
2018-02-14T03:25:04.659Z,13.77
2018-02-14T03:27:32.270Z,15.33
2018-02-14T03:30:00.619Z,15.33
2018-02-14T03:32:28.273Z,13.70
2018-02-14T03:34:55.851Z,13.80
2018-02-14T03:37:23.463Z,14.27
2018-02-14T03:39:51.048Z,13.30
2018-02-14T03:42:18.658Z,15.00
2018-02-14T03:44:47.025Z,14.37
2018-02-14T03:47:15.411Z,14.83
2018-02-14T03:49:43.755Z,13.73
2018-02-14T03:52:11.343Z,14.80
2018-02-14T03:54:38.981Z,13.37
2018-02-14T03:57:06.567Z,14.40
2018-02-14T03:59:34.950Z,15.77
2018-02-14T04:02:03.303Z,15.50
2018-02-14T04:04:30.915Z,15.77
2018-02-14T04:06:58.490Z,16.20
2018-02-14T04:09:26.096Z,15.00
2018-02-14T04:11:54.454Z,15.63
2018-02-14T04:14:22.079Z,14.90
2018-02-14T04:16:49.659Z,15.40
2018-02-14T04:19:17.283Z,14.10
2018-02-14T04:21:44.874Z,14.43
2018-02-14T04:24:12.484Z,16.17
2018-02-14T04:26:40.082Z,14.40
2018-02-14T04:29:07.683Z,15.00
2018-02-14T04:31:35.266Z,16.50
2018-02-14T04:34:02.875Z,15.70
2018-02-14T04:36:30.462Z,15.23
2018-02-14T04:38:58.097Z,16.50
2018-02-14T04:41:25.694Z,14.03
2018-02-14T04:43:54.071Z,14.90
2018-02-14T04:46:22.434Z,14.50
2018-02-14T04:48:50.049Z,14.77
2018-02-14T04:51:17.627Z,14.97
2018-02-14T04:53:45.287Z,16.13
2018-02-14T04:56:12.878Z,14.03
2018-02-14T04:58:41.230Z,12.90
2018-02-14T05:01:08.849Z,13.67
2018-02-14T05:03:36.448Z,14.83
2018-02-14T05:06:04.082Z,13.77
2018-02-14T05:08:31.681Z,14.23
2018-02-14T05:10:59.301Z,14.10
2018-02-14T05:13:26.879Z,14.77
2018-02-14T05:15:54.483Z,15.47
2018-02-14T05:18:22.850Z,17.50
2018-02-14T05:20:50.451Z,14.50
2018-02-14T05:23:18.049Z,14.30
2018-02-14T05:25:45.666Z,17.30
2018-02-14T05:28:13.246Z,16.80
2018-02-14T05:30:40.871Z,16.53
2018-02-14T05:33:09.238Z,15.47
2018-02-14T05:35:37.693Z,14.70
2018-02-14T05:38:05.300Z,15.90
2018-02-14T05:40:32.898Z,14.80
2018-02-14T05:43:00.529Z,15.87
2018-02-14T05:45:28.126Z,15.50
2018-02-14T05:47:55.744Z,17.47
2018-02-14T05:50:23.329Z,16.17
2018-02-14T05:52:50.927Z,16.30
2018-02-14T05:55:18.510Z,16.40
2018-02-14T05:57:46.137Z,15.30
2018-02-14T06:00:13.737Z,16.97
2018-02-14T06:02:41.362Z,15.50
2018-02-14T06:05:08.950Z,16.60
2018-02-14T06:07:37.365Z,18.87
2018-02-14T06:10:04.944Z,17.10
2018-02-14T06:12:32.547Z,17.70
2018-02-14T06:15:00.893Z,18.77
2018-02-14T06:17:28.504Z,17.77
2018-02-14T06:19:56.133Z,17.33
2018-02-14T06:22:24.479Z,19.07
2018-02-14T06:24:52.121Z,18.47
2018-02-14T06:27:19.706Z,19.57
2018-02-14T06:29:47.326Z,18.20
2018-02-14T06:32:14.935Z,18.40
2018-02-14T06:34:42.550Z,19.23
2018-02-14T06:37:10.125Z,20.83
2018-02-14T06:39:37.780Z,20.57
2018-02-14T06:42:05.392Z,17.53
2018-02-14T06:44:33.795Z,19.57
2018-02-14T06:47:01.402Z,16.93
2018-02-14T06:49:29.015Z,18.13
2018-02-14T06:51:56.601Z,18.70
2018-02-14T06:54:24.217Z,18.93
2018-02-14T06:56:58.326Z,18.37
2018-02-14T06:59:26.694Z,18.50
2018-02-14T07:01:55.051Z,17.83
2018-02-14T07:04:22.659Z,18.93
2018-02-14T07:06:50.235Z,17.73
2018-02-14T07:09:17.858Z,17.57
2018-02-14T07:11:46.219Z,17.77
2018-02-14T07:14:13.847Z,18.10
2018-02-14T07:16:41.486Z,17.27
2018-02-14T07:19:09.059Z,16.50
2018-02-14T07:21:36.672Z,17.07
2018-02-14T07:24:05.082Z,18.27
2018-02-14T07:26:32.740Z,17.70
2018-02-14T07:29:00.417Z,17.27
2018-02-14T07:31:28.093Z,19.30
2018-02-14T07:33:58.961Z,16.57
2018-02-14T07:36:26.603Z,17.13
2018-02-14T07:38:54.250Z,19.00
2018-02-14T07:41:21.878Z,20.07
2018-02-14T07:43:49.467Z,19.03
2018-02-14T07:46:17.076Z,15.10
2018-02-14T07:48:45.443Z,17.33
2018-02-14T07:51:13.838Z,18.77
2018-02-14T07:53:42.198Z,17.47
2018-02-14T07:56:09.820Z,19.90
2018-02-14T07:58:37.404Z,18.60
2018-02-14T08:01:05.032Z,19.17
2018-02-14T08:03:32.614Z,18.07
2018-02-14T08:06:01.008Z,20.67
2018-02-14T08:08:28.620Z,29.07
2018-02-14T08:10:56.464Z,21.67
2018-02-14T08:13:24.077Z,20.70
2018-02-14T08:15:51.733Z,21.57
2018-02-14T08:18:19.349Z,22.07
2018-02-14T08:20:47.704Z,21.40
2018-02-14T08:23:15.320Z,20.73
2018-02-14T08:25:42.917Z,21.07
2018-02-14T08:28:10.528Z,22.67
2018-02-14T08:30:38.115Z,22.73
2018-02-14T08:33:05.722Z,26.63
2018-02-14T08:35:34.080Z,24.27
2018-02-14T08:38:01.782Z,25.50
2018-02-14T08:40:29.359Z,26.77
2018-02-14T08:42:57.075Z,29.53
2018-02-14T08:45:25.410Z,28.43
2018-02-14T08:47:53.037Z,29.30
2018-02-14T08:50:20.633Z,27.67
2018-02-14T08:52:48.235Z,28.87
2018-02-14T08:55:16.621Z,28.70
2018-02-14T08:57:44.212Z,28.60
2018-02-14T09:00:11.834Z,26.43
2018-02-14T09:02:40.199Z,27.43
2018-02-14T09:05:08.596Z,29.37
2018-02-14T09:07:36.190Z,26.80
2018-02-14T09:10:03.808Z,27.13
2018-02-14T09:12:32.172Z,28.67
2018-02-14T09:14:59.796Z,26.80
2018-02-14T09:17:27.361Z,27.40
2018-02-14T09:19:54.964Z,25.30
2018-02-14T09:22:23.313Z,27.43
2018-02-14T09:24:50.925Z,28.20
2018-02-14T09:27:18.499Z,30.67
2018-02-14T09:29:46.120Z,26.93
2018-02-14T09:32:14.449Z,29.17
2018-02-14T09:34:42.015Z,28.67
2018-02-14T09:37:09.640Z,26.63
2018-02-14T09:39:37.252Z,28.83
2018-02-14T09:42:04.887Z,27.80
2018-02-14T09:44:33.246Z,28.83
2018-02-14T09:47:00.865Z,30.30
2018-02-14T09:49:29.225Z,29.27
2018-02-14T09:51:56.838Z,29.83
2018-02-14T09:54:24.632Z,30.10
2018-02-14T09:56:52.273Z,30.03
2018-02-14T09:59:19.881Z,28.40
2018-02-14T10:01:47.501Z,29.37
2018-02-14T10:04:15.097Z,36.20
2018-02-14T10:06:42.739Z,32.03
2018-02-14T10:09:10.322Z,30.10
2018-02-14T10:11:37.962Z,32.30
2018-02-14T10:14:05.533Z,37.23
2018-02-14T10:16:33.172Z,32.87
2018-02-14T10:19:00.781Z,35.97
2018-02-14T10:21:29.131Z,35.87
2018-02-14T10:23:56.751Z,34.33
2018-02-14T10:26:24.338Z,29.67
2018-02-14T10:28:51.957Z,30.80
2018-02-14T10:31:19.531Z,32.97
2018-02-14T10:33:47.131Z,30.83
2018-02-14T10:36:14.733Z,28.50
2018-02-14T10:38:42.356Z,28.07
2018-02-14T10:41:09.938Z,27.20
2018-02-14T10:43:38.291Z,27.53
2018-02-14T10:46:05.859Z,25.83
2018-02-14T10:48:33.462Z,24.30
2018-02-14T10:51:01.044Z,24.00
2018-02-14T10:53:28.660Z,23.50
2018-02-14T10:55:56.273Z,26.10
2018-02-14T10:58:24.400Z,23.00
2018-02-14T11:00:57.678Z,22.07
2018-02-14T11:03:31.096Z,20.07
2018-02-14T11:06:04.248Z,20.50
2018-02-14T11:08:31.894Z,17.10
2018-02-14T11:10:59.508Z,17.60
2018-02-14T11:13:27.100Z,18.37
2018-02-14T11:15:54.726Z,18.80
2018-02-14T11:18:22.317Z,16.83
2018-02-14T11:20:49.936Z,16.60
2018-02-14T11:23:17.517Z,14.43
2018-02-14T11:25:45.188Z,16.37
2018-02-14T11:28:12.773Z,16.23
2018-02-14T11:30:40.398Z,16.50
2018-02-14T11:33:07.992Z,21.20
2018-02-14T11:35:35.600Z,24.00
2018-02-14T11:38:03.195Z,20.80
2018-02-14T11:40:31.578Z,21.50
2018-02-14T11:42:59.170Z,19.10
2018-02-14T11:45:26.793Z,17.60
2018-02-14T11:47:54.394Z,19.10
2018-02-14T11:50:22.766Z,19.20
2018-02-14T11:52:50.386Z,20.63
2018-02-14T11:55:17.975Z,22.50
2018-02-14T11:57:45.590Z,21.57
2018-02-14T12:00:13.207Z,17.50
2018-02-14T12:02:41.609Z,12.20
2018-02-14T12:05:09.210Z,14.27
2018-02-14T12:07:37.079Z,14.87
2018-02-14T12:10:04.677Z,14.07
2018-02-14T12:12:33.089Z,14.00
2018-02-14T12:15:00.680Z,18.83
2018-02-14T12:17:28.311Z,16.30
2018-02-14T12:19:55.908Z,17.27
2018-02-14T12:22:24.276Z,15.13
2018-02-14T12:24:51.872Z,16.80
2018-02-14T12:27:20.276Z,17.03
2018-02-14T12:29:47.854Z,17.90
2018-02-14T12:32:15.447Z,20.00
2018-02-14T12:34:43.062Z,16.77
2018-02-14T12:37:10.659Z,16.97
2018-02-14T12:39:38.293Z,15.10
2018-02-14T12:42:05.903Z,16.90
2018-02-14T12:44:33.531Z,17.47
2018-02-14T12:47:01.137Z,47.63
2018-02-14T12:49:29.552Z,19.13
2018-02-14T12:51:57.161Z,12.43
2018-02-14T12:54:24.784Z,14.37
2018-02-14T12:56:52.361Z,12.50
2018-02-14T12:59:20.758Z,11.73
2018-02-14T13:01:48.344Z,14.00
2018-02-14T13:04:16.720Z,16.93
2018-02-14T13:06:44.333Z,11.63
2018-02-14T13:09:11.942Z,38.97
2018-02-14T13:11:39.659Z,39.90
2018-02-14T13:14:07.254Z,80.93
2018-02-14T13:16:35.658Z,24.87
2018-02-14T13:19:03.236Z,13.57
2018-02-14T13:21:31.396Z,11.17
2018-02-14T13:23:58.982Z,10.07
2018-02-14T13:26:26.599Z,10.97
2018-02-14T13:28:54.181Z,10.07
2018-02-14T13:31:21.793Z,11.00
2018-02-14T13:33:50.145Z,11.23
2018-02-14T13:36:17.755Z,11.60
2018-02-14T13:38:45.341Z,11.70
2018-02-14T13:41:12.949Z,10.93
2018-02-14T13:43:40.533Z,10.17
2018-02-14T13:46:08.158Z,10.90
2018-02-14T13:48:35.730Z,12.90
2018-02-14T13:51:04.171Z,11.17
2018-02-14T13:53:31.776Z,11.57
2018-02-14T13:56:00.137Z,12.00
2018-02-14T13:58:27.736Z,9.90
2018-02-14T14:00:55.320Z,9.50
2018-02-14T14:03:22.939Z,9.77
2018-02-14T14:05:51.271Z,8.43
2018-02-14T14:08:18.874Z,6.80
2018-02-14T14:10:47.220Z,7.77
2018-02-14T14:13:14.810Z,7.87
2018-02-14T14:15:43.143Z,9.43
2018-02-14T14:18:10.756Z,7.93
2018-02-14T14:20:38.330Z,8.93
2018-02-14T14:23:05.948Z,8.67
2018-02-14T14:25:33.506Z,8.00
2018-02-14T14:28:01.090Z,7.90
2018-02-14T14:30:28.715Z,12.40
2018-02-14T14:32:56.279Z,11.57
2018-02-14T14:35:23.898Z,13.20
2018-02-14T14:37:51.486Z,14.37
2018-02-14T14:40:19.090Z,13.30
2018-02-14T14:42:47.429Z,12.97
2018-02-14T14:45:15.038Z,12.20
2018-02-14T14:47:42.610Z,15.73
2018-02-14T14:50:10.216Z,19.53
2018-02-14T14:52:37.792Z,17.03
2018-02-14T14:55:06.151Z,14.23
2018-02-14T14:57:33.733Z,13.80
2018-02-14T15:00:02.121Z,13.40
2018-02-14T15:02:30.487Z,12.73
2018-02-14T15:04:58.815Z,23.77
2018-02-14T15:07:26.426Z,17.17
2018-02-14T15:09:54.768Z,14.67
2018-02-14T15:12:22.374Z,12.60
2018-02-14T15:14:49.961Z,12.97
2018-02-14T15:17:17.568Z,12.90
2018-02-14T15:19:45.136Z,12.67
2018-02-14T15:22:13.510Z,12.90
2018-02-14T15:24:41.078Z,12.37
2018-02-14T15:27:09.442Z,12.33
2018-02-14T15:29:37.025Z,11.27
2018-02-14T15:32:04.685Z,12.63
2018-02-14T15:34:33.032Z,10.93
2018-02-14T15:37:00.639Z,12.00
2018-02-14T15:39:28.227Z,11.77
2018-02-14T15:41:55.871Z,11.87
2018-02-14T15:44:23.475Z,10.87
2018-02-14T15:46:51.060Z,13.37
2018-02-14T15:49:19.445Z,10.70
2018-02-14T15:51:47.043Z,11.47
2018-02-14T15:54:14.664Z,11.77
2018-02-14T15:56:42.258Z,10.70
2018-02-14T15:59:09.931Z,11.40
2018-02-14T16:01:37.483Z,10.53
2018-02-14T16:04:05.090Z,11.93
2018-02-14T16:06:33.432Z,11.40
2018-02-14T16:09:01.047Z,12.47
2018-02-14T16:11:28.624Z,10.60
2018-02-14T16:13:56.247Z,10.53
2018-02-14T16:16:24.599Z,10.80
2018-02-14T16:18:52.221Z,11.97
2018-02-14T16:21:20.572Z,11.73
2018-02-14T16:23:48.206Z,12.37
2018-02-14T16:26:15.791Z,11.70
2018-02-14T16:28:44.174Z,11.17
2018-02-14T16:31:11.817Z,11.77
2018-02-14T16:33:40.169Z,12.00
2018-02-14T16:36:07.784Z,13.33
2018-02-14T16:38:35.374Z,12.77
2018-02-14T16:41:02.991Z,12.67
2018-02-14T16:43:30.599Z,12.83
2018-02-14T16:45:58.199Z,11.77
2018-02-14T16:48:26.539Z,12.60
2018-02-14T16:50:54.131Z,12.00
2018-02-14T16:53:22.483Z,13.27
2018-02-14T16:55:50.084Z,12.87
2018-02-14T16:58:18.421Z,12.00
2018-02-14T17:00:46.034Z,11.43
2018-02-14T17:03:13.620Z,12.77
2018-02-14T17:05:41.233Z,11.93
2018-02-14T17:08:09.606Z,11.50
2018-02-14T17:10:37.954Z,10.70
2018-02-14T17:13:05.726Z,10.33
2018-02-14T17:15:33.308Z,10.43
2018-02-14T17:18:01.712Z,20.50
2018-02-14T17:20:29.379Z,15.83
2018-02-14T17:22:57.014Z,15.37
2018-02-14T17:25:25.352Z,15.33
2018-02-14T17:27:52.965Z,14.00
2018-02-14T17:30:20.560Z,12.37
2018-02-14T17:32:48.193Z,12.30
2018-02-14T17:35:15.776Z,13.30
2018-02-14T17:37:43.389Z,13.30
2018-02-14T17:40:10.971Z,15.30
2018-02-14T17:42:38.592Z,16.10
2018-02-14T17:45:06.367Z,19.03
2018-02-14T17:47:34.712Z,19.80
2018-02-14T17:50:02.476Z,19.90
2018-02-14T17:52:30.088Z,18.97
2018-02-14T17:54:57.709Z,20.37
2018-02-14T17:57:25.300Z,19.80
2018-02-14T17:59:52.904Z,20.20
2018-02-14T18:02:20.487Z,21.57
2018-02-14T18:04:48.100Z,20.83
2018-02-14T18:07:15.701Z,22.80
2018-02-14T18:09:43.340Z,20.83
2018-02-14T18:12:11.074Z,21.87
2018-02-14T18:14:38.675Z,24.40
2018-02-14T18:17:06.293Z,23.17
2018-02-14T18:19:33.876Z,23.30
2018-02-14T18:22:01.507Z,23.40
2018-02-14T18:24:29.099Z,19.37
2018-02-14T18:26:56.743Z,18.83
2018-02-14T18:29:24.352Z,15.97
2018-02-14T18:31:51.990Z,17.00
2018-02-14T18:34:19.609Z,19.27
2018-02-14T18:36:47.227Z,18.60
2018-02-14T18:39:14.833Z,23.87
2018-02-14T18:41:42.473Z,25.00
2018-02-14T18:44:10.846Z,23.10
2018-02-14T18:46:39.201Z,21.50
2018-02-14T18:49:06.801Z,21.67
2018-02-14T18:51:34.402Z,24.20
2018-02-14T18:54:02.013Z,24.40
2018-02-14T18:56:30.350Z,27.40
2018-02-14T18:58:57.960Z,29.50
2018-02-14T19:01:25.556Z,27.67
2018-02-14T19:03:53.155Z,26.70
2018-02-14T19:06:21.507Z,28.80
2018-02-14T19:08:49.109Z,28.20
2018-02-14T19:11:17.454Z,25.67
2018-02-14T19:13:45.067Z,26.43
2018-02-14T19:16:12.650Z,28.73
2018-02-14T19:18:40.285Z,26.90
2018-02-14T19:21:07.872Z,28.10
2018-02-14T19:23:35.458Z,26.10
2018-02-14T19:26:03.106Z,26.33
2018-02-14T19:28:30.706Z,26.50
2018-02-14T19:30:58.343Z,29.57
2018-02-14T19:33:25.945Z,28.83
2018-02-14T19:35:53.559Z,27.13
2018-02-14T19:38:21.138Z,28.90
2018-02-14T19:40:49.512Z,27.00
2018-02-14T19:43:17.860Z,27.20
2018-02-14T19:45:45.480Z,28.17
2018-02-14T19:48:13.064Z,27.90
2018-02-14T19:50:40.692Z,26.70
2018-02-14T19:53:08.275Z,29.73
2018-02-14T19:55:35.865Z,28.57
2018-02-14T19:58:03.473Z,26.97
2018-02-14T20:00:31.075Z,26.80
2018-02-14T20:02:58.692Z,27.80
2018-02-14T20:05:26.269Z,31.50
2018-02-14T20:07:53.874Z,27.47
2018-02-14T20:10:21.450Z,28.33
2018-02-14T20:12:49.822Z,31.27
2018-02-14T20:15:18.182Z,30.17
2018-02-14T20:17:45.808Z,28.53
2018-02-14T20:20:13.381Z,29.23
2018-02-14T20:22:41.028Z,29.50
2018-02-14T20:25:08.610Z,29.53
2018-02-14T20:27:36.241Z,30.63
2018-02-14T20:30:03.836Z,31.43
2018-02-14T20:32:31.457Z,32.63
2018-02-14T20:34:59.052Z,30.00
2018-02-14T20:37:26.629Z,31.57
2018-02-14T20:39:54.243Z,29.83
2018-02-14T20:42:24.172Z,29.57
2018-02-14T20:44:53.802Z,31.73
2018-02-14T20:47:21.396Z,28.73
2018-02-14T20:49:48.996Z,30.17
2018-02-14T20:52:16.614Z,31.20
2018-02-14T20:54:44.236Z,31.03
2018-02-14T20:57:11.814Z,31.80
2018-02-14T20:59:39.426Z,33.27
2018-02-14T21:04:40.037Z,32.93
2018-02-14T21:07:08.412Z,31.97
2018-02-14T21:09:36.819Z,32.77
2018-02-14T21:12:04.444Z,32.33
2018-02-14T21:14:32.846Z,32.80
2018-02-14T21:17:00.451Z,31.07
2018-02-14T21:19:28.071Z,33.27
2018-02-14T21:21:55.704Z,31.67
2018-02-14T21:24:24.071Z,33.07
2018-02-14T21:26:51.702Z,33.73
2018-02-14T21:29:19.301Z,32.07
2018-02-14T21:31:47.892Z,34.33
2018-02-14T21:34:16.275Z,32.17
2018-02-14T21:36:43.917Z,34.60
2018-02-14T21:39:11.526Z,34.77
2018-02-14T21:41:39.164Z,33.00
2018-02-14T21:44:06.768Z,31.47
2018-02-14T21:46:35.879Z,31.97
2018-02-14T21:49:03.598Z,33.87
2018-02-14T21:51:31.234Z,30.47
2018-02-14T21:53:59.598Z,33.30
2018-02-14T21:56:28.003Z,37.00
2018-02-14T21:58:55.614Z,35.20
2018-02-14T22:01:23.219Z,37.10
2018-02-14T22:03:50.855Z,36.27
2018-02-14T22:06:19.227Z,38.03
2018-02-14T22:08:47.625Z,37.00
2018-02-14T22:11:16.023Z,39.27
2018-02-14T22:13:43.676Z,37.43
2018-02-14T22:16:11.309Z,33.57
2018-02-14T22:18:39.751Z,39.57
2018-02-14T22:21:07.355Z,36.90
2018-02-14T22:23:35.764Z,34.03
2018-02-14T22:26:03.613Z,37.67
2018-02-14T22:28:31.273Z,34.70
2018-02-14T22:30:59.646Z,37.47
2018-02-14T22:33:28.039Z,38.83
2018-02-14T22:35:55.666Z,39.27
2018-02-14T22:38:24.080Z,36.93
2018-02-14T22:40:51.748Z,40.63
2018-02-14T22:43:19.416Z,43.27
2018-02-14T22:45:47.043Z,45.47
2018-02-14T22:48:15.411Z,40.17
2018-02-14T22:50:43.817Z,41.80
2018-02-14T22:53:11.430Z,45.07
2018-02-14T22:55:39.062Z,45.57
2018-02-14T22:58:06.661Z,47.37
2018-02-14T23:00:34.299Z,44.30
2018-02-14T23:03:01.918Z,46.40
2018-02-14T23:05:29.543Z,45.60
2018-02-14T23:07:57.166Z,44.87
2018-02-14T23:10:24.808Z,45.67
2018-02-14T23:12:52.431Z,44.77
2018-02-14T23:15:20.839Z,46.90
2018-02-14T23:17:48.438Z,47.27
2018-02-14T23:20:16.095Z,44.60
2018-02-14T23:22:43.713Z,44.57
2018-02-14T23:25:11.368Z,45.37
2018-02-14T23:27:39.756Z,50.60
2018-02-14T23:30:07.477Z,46.20
2018-02-14T23:32:35.116Z,43.13
2018-02-14T23:35:02.856Z,49.53
2018-02-14T23:37:30.497Z,44.10
2018-02-14T23:39:58.103Z,43.50
2018-02-14T23:42:25.755Z,42.00
2018-02-14T23:44:53.377Z,41.17
2018-02-14T23:47:21.773Z,41.80
2018-02-14T23:49:49.394Z,48.97
2018-02-14T23:52:17.805Z,45.43
2018-02-14T23:54:45.419Z,42.30
2018-02-14T23:57:13.215Z,42.10
2018-02-14T23:59:41.588Z,40.77
